Time;durP1;ratioP1;P1;durP2;ratioP2;P2;SDS_P1;SDS_P2;PMS_P1;PMS_P2;Temp;Humidity;BMP_temperature;BMP_pressure;BME280_temperature;BME280_humidity;BME280_pressure;Samples;Min_cycle;Max_cycle;Signal;HPM_P1;HPM_P2
2023/01/23 12:35:43;;;;;;;14.30;8.10;;;;;;;0.66;95.84;102864.23;99531;1270;71778;-72
2023/01/23 12:38:55;;;;;;;14.70;7.10;;;;;;;0.74;95.66;102870.42;104393;1284;61199;-72
2023/01/23 12:41:48;;;;;;;12.90;7.10;;;;;;;0.75;95.72;102876.42;104659;1282;70689;-73
2023/01/23 12:44:31;;;;;;;15.80;7.30;;;;;;;0.80;96.66;102880.73;106971;1277;73004;-73
2023/01/23 12:47:30;;;;;;;13.90;7.10;;;;;;;0.80;95.26;102883.98;104703;1280;60694;-72
2023/01/23 12:50:39;;;;;;;13.70;6.90;;;;;;;0.70;94.76;102879.33;104675;1286;60663;-72
2023/01/23 12:53:14;;;;;;;14.10;7.20;;;;;;;0.53;96.84;102878.08;104993;1280;72336;-71
2023/01/23 12:55:53;;;;;;;13.20;7.60;;;;;;;0.54;96.35;102880.13;104729;1280;71611;-72
2023/01/23 12:58:26;;;;;;;12.80;6.90;;;;;;;0.51;96.92;102888.70;104703;1282;70155;-73
2023/01/23 13:01:23;;;;;;;13.50;6.70;;;;;;;0.71;97.73;102888.42;104740;1288;63455;-72
2023/01/23 13:04:09;;;;;;;14.50;7.60;;;;;;;0.63;96.23;102887.70;104691;1279;59080;-74
2023/01/23 13:07:03;;;;;;;12.80;7.30;;;;;;;0.59;96.78;102882.89;104663;1280;61141;-74
2023/01/23 13:09:57;;;;;;;;;;;;;;;0.56;96.89;102891.27;104695;1280;72257;-72
2023/01/23 13:12:27;;;;;;;10.40;5.30;;;;;;;0.62;96.46;102896.61;104684;1279;70065;-70
2023/01/23 13:15:15;;;;;;;18.30;8.70;;;;;;;0.68;95.15;102898.70;104712;1280;69153;-73
2023/01/23 13:18:01;;;;;;;11.70;6.40;;;;;;;0.57;95.50;102896.42;104534;1280;72509;-71
2023/01/23 13:25:08;;;;;;;18.20;7.90;;;;;;;0.59;95.92;102891.11;104487;1288;59385;-73
2023/01/23 13:26:40;;;;;;;14.40;6.20;;;;;;;0.59;96.06;102899.17;104834;1282;73696;-72
2023/01/23 13:29:50;;;;;;;12.30;6.70;;;;;;;0.59;95.46;102899.18;104761;1277;61738;-72
2023/01/23 13:32:27;;;;;;;16.50;7.30;;;;;;;0.57;95.60;102889.73;104684;1280;69933;-71
2023/01/23 13:34:56;;;;;;;18.90;8.90;;;;;;;0.58;96.05;102901.40;104652;1280;73902;-73
2023/01/23 13:37:28;;;;;;;15.30;7.70;;;;;;;0.53;96.15;102902.59;104618;1277;58941;-72
2023/01/23 13:40:20;;;;;;;13.80;8.00;;;;;;;0.55;97.11;102904.65;104691;1285;59248;-70
2023/01/23 13:42:50;;;;;;;16.90;8.30;;;;;;;0.61;96.51;102900.03;104594;1278;62444;-73
2023/01/23 13:45:27;;;;;;;22.50;10.60;;;;;;;0.60;96.42;102897.64;104569;1291;71290;-72
2023/01/23 13:51:48;;;;;;;20.60;9.30;;;;;;;0.61;97.11;102894.39;104225;1283;63863;-72
2023/01/23 13:57:32;;;;;;;;;;;;;;;0.49;96.46;102892.45;102930;1304;59562;-71
2023/01/23 14:06:16;;;;;;;17.40;8.60;;;;;;;0.51;97.86;102892.98;104260;1277;602077;-72
2023/01/23 14:08:59;;;;;;;13.80;7.50;;;;;;;0.53;98.14;102894.36;106405;1253;58281;-74
2023/01/23 14:11:44;;;;;;;17.20;9.30;;;;;;;0.46;98.58;102889.02;106077;1262;60730;-73
2023/01/23 14:17:38;;;;;;;17.30;9.40;;;;;;;0.60;99.69;102898.16;105665;1264;70775;-72
2023/01/23 14:20:21;;;;;;;15.10;8.40;;;;;;;0.54;98.59;102896.93;105121;1270;278515;-72
2023/01/23 14:22:55;;;;;;;19.40;9.10;;;;;;;0.60;98.84;102893.69;105303;1271;71771;-72
2023/01/23 14:25:25;;;;;;;17.50;8.50;;;;;;;0.64;99.28;102887.20;105265;1270;62292;-72
2023/01/23 14:28:04;;;;;;;13.50;7.70;;;;;;;0.64;98.93;102887.89;105423;1271;59418;-71
2023/01/23 14:30:33;;;;;;;14.30;7.20;;;;;;;0.71;99.10;102891.52;105292;1270;72108;-71
2023/01/23 14:33:15;;;;;;;14.50;8.20;;;;;;;0.72;99.16;102890.48;105233;1270;72261;-71
2023/01/23 14:35:45;;;;;;;15.90;7.20;;;;;;;0.68;98.01;102897.48;105224;1270;70517;-71
2023/01/23 14:38:27;;;;;;;13.30;7.80;;;;;;;0.67;97.58;102893.56;105244;1274;72734;-72
2023/01/23 14:40:57;;;;;;;15.20;6.40;;;;;;;0.65;97.83;102893.72;105957;1266;59818;-72
2023/01/23 14:43:28;;;;;;;10.70;5.70;;;;;;;0.68;97.08;102895.79;106392;1257;59846;-72
2023/01/23 14:46:13;;;;;;;11.30;5.80;;;;;;;0.68;96.34;102902.64;106674;1249;72669;-70
2023/01/23 14:48:48;;;;;;;11.10;6.20;;;;;;;0.66;96.27;102902.11;106806;1253;72025;-71
2023/01/23 14:51:22;;;;;;;9.60;5.90;;;;;;;0.70;96.70;102902.32;107160;1244;70897;-73
2023/01/23 14:54:16;;;;;;;15.80;7.70;;;;;;;0.68;95.51;102900.77;107001;1255;73708;-72
2023/01/23 14:56:52;;;;;;;11.80;7.40;;;;;;;0.69;95.58;102899.91;107211;1247;58317;-71
2023/01/23 14:59:33;;;;;;;12.70;6.80;;;;;;;0.67;95.91;102902.98;107129;1248;58873;-76
2023/01/23 15:02:30;;;;;;;13.00;7.30;;;;;;;0.66;96.21;102906.41;107256;1247;61402;-72
2023/01/23 15:05:12;;;;;;;12.00;6.30;;;;;;;0.77;95.90;102906.11;107064;1247;71337;-71
2023/01/23 15:07:53;;;;;;;10.50;6.10;;;;;;;0.72;94.95;102901.47;107195;1244;69983;-70
2023/01/23 15:10:40;;;;;;;12.40;6.90;;;;;;;0.75;95.85;102904.05;107257;1251;72274;-72
2023/01/23 15:13:47;;;;;;;14.20;7.40;;;;;;;0.85;96.37;102899.96;107226;1244;57998;-72
2023/01/23 15:16:32;;;;;;;12.70;7.30;;;;;;;0.85;95.85;102901.67;107157;1245;59100;-70
2023/01/23 15:19:05;;;;;;;11.00;6.20;;;;;;;0.90;95.39;102900.66;107112;1253;72104;-72
2023/01/23 15:21:36;;;;;;;;;;;;;;;0.88;95.66;102903.39;107161;1244;71271;-69
2023/01/23 15:24:26;;;;;;;10.50;5.80;;;;;;;0.89;95.12;102903.91;107118;1247;69023;-70
2023/01/23 15:27:24;;;;;;;11.90;6.20;;;;;;;0.93;95.18;102906.84;107154;1245;65996;-71
2023/01/23 15:30:34;;;;;;;13.30;7.10;;;;;;;0.94;95.75;102906.34;106863;1244;62758;-71
2023/01/23 15:33:21;;;;;;;15.80;8.60;;;;;;;1.04;95.86;102912.88;107054;1244;61117;-71
2023/01/23 15:35:50;;;;;;;14.70;7.00;;;;;;;0.91;95.04;102910.27;106975;1244;62587;-70
2023/01/23 15:38:19;;;;;;;15.60;7.20;;;;;;;0.92;94.58;102908.38;106937;1243;69876;-73
2023/01/23 15:40:48;;;;;;;15.10;6.90;;;;;;;1.03;95.01;102914.94;106986;1245;68144;-70
2023/01/23 15:43:18;;;;;;;10.90;5.10;;;;;;;0.94;93.68;102909.61;106983;1250;63032;-71
2023/01/23 15:45:47;;;;;;;12.20;6.40;;;;;;;1.00;95.41;102910.81;106942;1254;61335;-70
2023/01/23 15:48:16;;;;;;;14.40;7.40;;;;;;;1.10;94.75;102914.09;106993;1256;59131;-72
2023/01/23 15:50:45;;;;;;;13.10;7.20;;;;;;;1.13;94.34;102916.34;107148;1244;61360;-72
2023/01/23 15:53:14;;;;;;;13.00;7.30;;;;;;;1.07;93.19;102919.40;107156;1244;70847;-71
2023/01/23 15:55:44;;;;;;;14.20;7.20;;;;;;;1.00;93.52;102923.50;107034;1256;59705;-70
2023/01/23 15:58:14;;;;;;;17.10;7.90;;;;;;;1.03;93.50;102921.79;107039;1247;62822;-71
2023/01/23 16:00:43;;;;;;;14.40;7.60;;;;;;;0.94;94.82;102916.63;107159;1247;59993;-72
2023/01/23 16:03:13;;;;;;;13.30;6.90;;;;;;;0.97;94.36;102916.80;107223;1247;59429;-71
2023/01/23 16:05:42;;;;;;;15.80;7.80;;;;;;;1.00;94.00;102921.79;107241;1244;71990;-71
2023/01/23 16:08:20;;;;;;;16.90;7.80;;;;;;;1.05;95.28;102922.49;107266;1246;73052;-72
2023/01/23 16:10:49;;;;;;;16.00;7.30;;;;;;;1.02;93.91;102925.05;107243;1242;69758;-71
2023/01/23 16:13:18;;;;;;;16.20;7.60;;;;;;;0.90;94.03;102923.98;107232;1243;72199;-72
2023/01/23 16:15:47;;;;;;;15.20;7.80;;;;;;;1.01;96.43;102923.33;107271;1244;59502;-73
2023/01/23 16:18:17;;;;;;;18.30;8.50;;;;;;;1.17;94.78;102925.78;107308;1244;60436;-72
2023/01/23 16:20:46;;;;;;;17.80;8.00;;;;;;;1.17;93.55;102926.48;107349;1256;62141;-71
2023/01/23 16:23:23;;;;;;;19.10;8.60;;;;;;;1.10;93.32;102934.00;107304;1243;71841;-71
2023/01/23 16:25:53;;;;;;;21.60;9.20;;;;;;;1.18;95.06;102933.50;107362;1244;59595;-71
2023/01/23 16:28:28;;;;;;;19.00;8.40;;;;;;;1.11;94.70;102936.59;107138;1247;62509;-73
2023/01/23 16:30:57;;;;;;;17.50;7.90;;;;;;;0.96;94.22;102933.61;107185;1244;61073;-73
2023/01/23 16:33:26;;;;;;;17.70;8.50;;;;;;;0.95;95.45;102931.73;107190;1244;60016;-73
2023/01/23 16:35:55;;;;;;;18.50;9.30;;;;;;;1.13;96.03;102934.85;107164;1256;70355;-73
2023/01/23 16:38:27;;;;;;;18.70;8.40;;;;;;;1.15;94.79;102928.68;107201;1245;71747;-72
2023/01/23 16:40:58;;;;;;;20.80;10.10;;;;;;;1.18;93.93;102936.42;107160;1255;70304;-71
2023/01/23 16:43:27;;;;;;;17.60;8.40;;;;;;;1.13;94.04;102935.71;107232;1256;71987;-71
2023/01/23 16:45:56;;;;;;;19.50;8.60;;;;;;;1.10;94.15;102938.98;107244;1247;58985;-72
2023/01/23 16:48:25;;;;;;;16.70;8.60;;;;;;;1.25;96.41;102943.30;107324;1248;59502;-72
2023/01/23 16:51:07;;;;;;;18.70;8.70;;;;;;;1.38;95.85;102950.88;107286;1243;72638;-73
2023/01/23 16:53:51;;;;;;;21.10;8.20;;;;;;;1.40;93.97;102955.17;107251;1244;72332;-72
2023/01/23 16:56:42;;;;;;;20.00;9.50;;;;;;;1.34;93.69;102952.41;107258;1243;60306;-72
2023/01/23 16:59:29;;;;;;;17.50;7.80;;;;;;;1.32;94.96;102949.67;107296;1256;62559;-72
2023/01/23 17:01:58;;;;;;;19.80;8.10;;;;;;;1.41;94.88;102946.77;107133;1247;61192;-71
2023/01/23 17:04:28;;;;;;;18.80;8.50;;;;;;;1.32;94.34;102945.55;107174;1245;60695;-71
2023/01/23 17:06:57;;;;;;;18.30;7.90;;;;;;;1.31;94.41;102949.83;107197;1243;71751;-71
2023/01/23 17:09:26;;;;;;;17.30;8.20;;;;;;;1.20;94.38;102946.56;107231;1246;70860;-71
2023/01/23 17:11:56;;;;;;;14.80;7.90;;;;;;;1.16;94.58;102949.81;107190;1257;60748;-70
2023/01/23 17:14:29;;;;;;;12.00;6.20;;;;;;;1.15;94.22;102948.09;107070;1247;63290;-70
2023/01/23 17:17:12;;;;;;;8.30;4.60;;;;;;;1.03;93.32;102954.74;107129;1244;62131;-70
2023/01/23 17:19:42;;;;;;;9.60;5.70;;;;;;;0.89;92.54;102955.73;107579;1242;59054;-71
2023/01/23 17:22:32;;;;;;;9.70;5.70;;;;;;;0.84;93.26;102960.86;107172;1243;70084;-71
2023/01/23 17:25:02;;;;;;;9.90;5.40;;;;;;;0.80;94.45;102961.87;107271;1245;71358;-70
2023/01/23 17:27:31;;;;;;;7.80;4.80;;;;;;;0.95;94.75;102960.21;107136;1248;69146;-70
2023/01/23 17:30:22;;;;;;;9.70;5.20;;;;;;;1.00;94.15;102957.48;107043;1249;64678;-71
2023/01/23 17:32:55;;;;;;;12.50;5.50;;;;;;;1.01;93.72;102959.88;107089;1246;58902;-69
2023/01/23 17:35:33;;;;;;;10.70;5.70;;;;;;;1.06;93.62;102964.54;106971;1249;58321;-70
2023/01/23 17:38:03;;;;;;;12.00;6.30;;;;;;;1.07;92.85;102962.14;107037;1256;61462;-70
2023/01/23 17:40:32;;;;;;;11.40;6.60;;;;;;;1.12;94.16;102963.52;107170;1244;71530;-71
2023/01/23 17:43:01;;;;;;;10.30;5.70;;;;;;;0.99;92.52;102962.80;107172;1256;70154;-70
2023/01/23 17:45:32;;;;;;;10.60;5.00;;;;;;;1.04;94.15;102961.61;107165;1245;73285;-70
2023/01/23 17:48:01;;;;;;;9.60;5.40;;;;;;;1.11;93.92;102965.06;107088;1246;61955;-71
2023/01/23 17:50:30;;;;;;;9.30;4.90;;;;;;;1.18;92.68;102966.64;107162;1244;59191;-70
2023/01/23 17:52:59;;;;;;;10.10;6.10;;;;;;;1.14;91.92;102965.42;107122;1256;70110;-73
2023/01/23 17:55:30;;;;;;;13.20;7.00;;;;;;;1.13;92.33;102967.48;107078;1253;72493;-70
2023/01/23 17:58:00;;;;;;;16.80;9.80;;;;;;;1.17;92.52;102961.82;107147;1246;69967;-72
2023/01/23 18:00:29;;;;;;;19.40;11.10;;;;;;;1.14;91.66;102964.05;107206;1254;73803;-70
2023/01/23 18:03:00;;;;;;;17.30;12.70;;;;;;;1.03;91.93;102963.14;107238;1242;58242;-72
2023/01/23 18:05:30;;;;;;;62.00;43.70;;;;;;;0.92;92.64;102961.39;107140;1246;60258;-72
2023/01/23 18:08:00;;;;;;;12.20;7.50;;;;;;;0.95;93.51;102963.80;107070;1245;73051;-70
2023/01/23 18:10:29;;;;;;;13.30;8.10;;;;;;;1.04;93.60;102971.23;107035;1243;71754;-68
2023/01/23 18:13:26;;;;;;;23.70;14.80;;;;;;;0.98;93.11;102972.40;107054;1247;69118;-70
2023/01/23 18:16:13;;;;;;;11.10;7.10;;;;;;;1.07;93.69;102975.52;106888;1256;73754;-69
2023/01/23 18:18:45;;;;;;;13.00;6.30;;;;;;;1.24;93.24;102974.55;106973;1244;58923;-68
2023/01/23 18:21:16;;;;;;;9.60;6.60;;;;;;;1.31;92.17;102976.10;106785;1243;59107;-70
2023/01/23 18:23:46;;;;;;;11.50;6.60;;;;;;;1.35;92.17;102975.25;106923;1243;71939;-72
2023/01/23 18:26:52;;;;;;;9.40;6.10;;;;;;;1.20;88.61;102977.11;106809;1247;63030;-70
2023/01/23 18:29:33;;;;;;;9.80;5.10;;;;;;;1.07;88.82;102975.19;106877;1253;59046;-71
2023/01/23 18:32:24;;;;;;;12.30;5.00;;;;;;;1.06;88.64;102972.77;107082;1245;62473;-71
2023/01/23 18:35:37;;;;;;;9.20;4.70;;;;;;;1.13;87.39;102975.54;107067;1253;62057;-69
2023/01/23 18:38:30;;;;;;;7.90;4.40;;;;;;;1.09;86.08;102978.10;106839;1244;61273;-71
2023/01/23 18:41:05;;;;;;;10.10;5.30;;;;;;;0.99;86.32;102982.02;107039;1244;74413;-71
2023/01/23 18:43:41;;;;;;;9.90;5.10;;;;;;;1.13;86.57;102981.73;107086;1245;71974;-70
2023/01/23 18:46:22;;;;;;;11.30;5.00;;;;;;;1.01;85.50;102976.36;107111;1244;70794;-70
2023/01/23 18:48:52;;;;;;;11.00;4.30;;;;;;;0.93;86.23;102981.14;107046;1244;74180;-70
2023/01/23 18:51:53;;;;;;;11.80;5.00;;;;;;;0.97;88.38;102978.75;107016;1246;60455;-70
2023/01/23 18:54:28;;;;;;;12.10;6.10;;;;;;;1.01;87.50;102978.93;107121;1244;58985;-71
2023/01/23 18:57:55;;;;;;;11.30;6.00;;;;;;;1.01;87.94;102983.23;107044;1257;62520;-72
2023/01/23 19:00:45;;;;;;;14.40;5.40;;;;;;;0.95;89.26;102988.87;106824;1243;71810;-72
2023/01/23 19:03:17;;;;;;;14.80;5.90;;;;;;;0.96;89.15;102989.39;107095;1245;70213;-71
2023/01/23 19:05:46;;;;;;;11.30;5.90;;;;;;;0.93;88.61;102992.80;107029;1243;73429;-72
2023/01/23 19:08:31;;;;;;;10.30;6.40;;;;;;;0.86;89.12;102994.84;107092;1245;60163;-71
2023/01/23 19:11:18;;;;;;;11.00;6.40;;;;;;;0.82;89.28;102998.08;107142;1256;60556;-71
2023/01/23 19:14:14;;;;;;;9.90;5.90;;;;;;;0.85;90.99;102999.13;106951;1248;72806;-72
2023/01/23 19:16:53;;;;;;;10.90;5.80;;;;;;;0.96;91.34;102998.14;107048;1244;62740;-72
2023/01/23 19:19:38;;;;;;;10.60;5.10;;;;;;;0.94;90.12;102997.09;106919;1244;68158;-72
2023/01/23 19:22:12;;;;;;;12.10;6.20;;;;;;;1.07;91.62;102989.42;106957;1244;74409;-71
2023/01/23 19:24:42;;;;;;;10.90;5.70;;;;;;;1.14;89.81;102993.05;106956;1254;58743;-71
2023/01/23 19:27:22;;;;;;;9.40;5.70;;;;;;;0.96;88.93;102990.92;106892;1246;59137;-71
2023/01/23 19:29:52;;;;;;;9.90;6.10;;;;;;;0.94;89.41;102991.95;107020;1245;71624;-71
2023/01/23 19:32:21;;;;;;;10.60;5.30;;;;;;;0.84;88.53;102993.63;106923;1247;71481;-72
2023/01/23 19:34:50;;;;;;;9.70;5.70;;;;;;;0.81;89.69;102993.79;106748;1245;69395;-72
2023/01/23 19:37:21;;;;;;;9.30;5.30;;;;;;;0.87;88.87;102993.80;106891;1247;74319;-73
2023/01/23 19:39:50;;;;;;;9.70;6.30;;;;;;;1.03;89.87;102988.38;107021;1244;61118;-71
2023/01/23 19:42:19;;;;;;;7.40;5.10;;;;;;;1.01;88.26;102989.76;107021;1244;59029;-71
2023/01/23 19:44:48;;;;;;;10.50;6.30;;;;;;;0.94;87.55;102994.86;107157;1246;62582;-70
2023/01/23 19:47:17;;;;;;;11.00;6.40;;;;;;;0.76;87.53;102995.13;107332;1243;71581;-74
2023/01/23 19:49:46;;;;;;;8.80;5.60;;;;;;;0.79;88.30;102993.08;106980;1247;69002;-72
2023/01/23 19:52:15;;;;;;;11.00;6.10;;;;;;;0.69;87.95;102994.23;107122;1245;73301;-72
2023/01/23 19:54:44;;;;;;;9.90;6.20;;;;;;;0.75;88.06;102991.19;107108;1247;60678;-72
2023/01/23 19:57:13;;;;;;;11.40;6.70;;;;;;;0.69;88.26;102988.91;107128;1245;59144;-73
2023/01/23 19:59:42;;;;;;;9.90;6.00;;;;;;;0.60;89.57;102988.02;107053;1247;71091;-72
2023/01/23 20:02:18;;;;;;;11.40;6.30;;;;;;;0.65;89.08;102988.56;107165;1244;61134;-71
2023/01/23 20:04:47;;;;;;;9.60;5.70;;;;;;;0.59;88.88;102987.84;107043;1246;70880;-72
2023/01/23 20:07:16;;;;;;;12.10;6.20;;;;;;;0.51;89.65;102987.27;107069;1246;72335;-76
2023/01/23 20:09:45;;;;;;;11.30;5.50;;;;;;;0.62;91.43;102987.69;107341;1256;61365;-72
2023/01/23 20:12:14;;;;;;;11.30;6.30;;;;;;;0.69;90.12;102984.80;107164;1245;60253;-66
2023/01/23 20:14:44;;;;;;;11.20;6.50;;;;;;;0.62;89.18;102984.09;107212;1244;73579;-68
2023/01/23 20:17:13;;;;;;;10.40;6.30;;;;;;;0.55;90.35;102983.88;107110;1244;71273;-68
2023/01/23 20:19:43;;;;;;;11.50;6.60;;;;;;;0.54;89.55;102982.84;107093;1248;71174;-67
2023/01/23 20:22:12;;;;;;;11.90;6.60;;;;;;;0.51;89.74;102980.77;107158;1245;72009;-65
2023/01/23 20:24:41;;;;;;;11.40;6.10;;;;;;;0.43;89.03;102983.45;107112;1244;59531;-66
2023/01/23 20:27:11;;;;;;;11.60;6.30;;;;;;;0.42;88.97;102984.30;106880;1247;61439;-68
2023/01/23 20:29:40;;;;;;;14.30;7.50;;;;;;;0.40;88.96;102985.84;107012;1245;72545;-65
2023/01/23 20:32:09;;;;;;;11.70;5.70;;;;;;;0.38;88.91;102987.71;106878;1253;69690;-67
2023/01/23 20:34:38;;;;;;;10.10;5.50;;;;;;;0.38;88.90;102984.80;106884;1256;67702;-66
2023/01/23 20:37:07;;;;;;;9.70;5.50;;;;;;;0.40;89.58;102988.42;107085;1245;71345;-67
2023/01/23 20:39:36;;;;;;;10.50;5.60;;;;;;;0.42;89.17;102990.49;107116;1248;59944;-67
2023/01/23 20:42:06;;;;;;;8.80;5.30;;;;;;;0.43;89.43;102994.09;107185;1244;58977;-66
2023/01/23 20:44:37;;;;;;;9.10;5.40;;;;;;;0.42;88.19;102998.54;107141;1243;73436;-66
2023/01/23 20:47:08;;;;;;;9.40;5.00;;;;;;;0.39;88.24;102994.23;107129;1245;69897;-67
2023/01/23 20:49:37;;;;;;;10.60;5.10;;;;;;;0.38;87.88;102995.27;107159;1246;68653;-67
2023/01/23 20:54:53;;;;;;;9.70;5.50;;;;;;;0.27;88.46;102987.65;107086;1245;60010;-72
2023/01/23 20:57:22;;;;;;;10.80;6.20;;;;;;;0.23;88.78;102980.25;107271;1244;59035;-68
2023/01/23 20:59:51;;;;;;;8.90;4.90;;;;;;;0.20;89.53;102989.66;107149;1244;70939;-68
2023/01/23 21:02:24;;;;;;;12.50;6.60;;;;;;;0.19;89.74;102991.87;107200;1253;72622;-67
2023/01/23 21:04:53;;;;;;;11.00;6.30;;;;;;;0.27;90.80;102993.13;107106;1256;70528;-68
2023/01/23 21:07:26;;;;;;;11.60;6.30;;;;;;;0.24;89.75;102990.37;107214;1244;71052;-68
2023/01/23 21:09:55;;;;;;;11.30;6.20;;;;;;;0.24;89.56;102994.82;107195;1244;60049;-67
2023/01/23 21:12:24;;;;;;;12.70;6.30;;;;;;;0.19;90.37;102997.54;107167;1244;60104;-68
2023/01/23 21:14:53;;;;;;;11.60;7.00;;;;;;;0.18;90.09;102999.40;107091;1248;71052;-68
2023/01/23 21:17:22;;;;;;;10.80;6.80;;;;;;;0.16;90.52;102998.70;107193;1246;70711;-68
2023/01/23 21:19:51;;;;;;;11.10;6.70;;;;;;;0.13;90.70;102999.02;107077;1244;70229;-69
2023/01/23 21:22:20;;;;;;;11.00;6.60;;;;;;;0.04;91.88;102997.07;107142;1245;73887;-68
2023/01/23 21:24:49;;;;;;;10.30;6.20;;;;;;;0.11;91.57;103003.48;107138;1244;60602;-68
2023/01/23 21:27:18;;;;;;;11.60;6.00;;;;;;;0.10;91.38;102999.52;107191;1248;59896;-69
2023/01/23 21:29:50;;;;;;;9.60;6.20;;;;;;;0.09;91.12;102994.36;107359;1245;71770;-69
2023/01/23 21:32:20;;;;;;;10.40;5.90;;;;;;;0.08;91.18;102991.62;107319;1245;68912;-69
2023/01/23 21:34:50;;;;;;;11.10;6.20;;;;;;;0.05;91.62;102987.65;107226;1248;70443;-68
2023/01/23 21:37:19;;;;;;;11.90;6.50;;;;;;;0.09;93.11;102987.69;107165;1246;74048;-68
2023/01/23 21:39:48;;;;;;;11.40;6.80;;;;;;;0.26;93.33;102992.96;107246;1244;60689;-67
2023/01/23 21:42:17;;;;;;;9.80;5.70;;;;;;;0.25;91.69;102988.67;107174;1256;59681;-67
2023/01/23 21:44:46;;;;;;;9.60;6.60;;;;;;;0.26;91.76;102985.42;107198;1256;71313;-66
2023/01/23 21:47:16;;;;;;;10.30;6.50;;;;;;;0.21;91.33;102979.20;107132;1244;71787;-69
2023/01/23 21:49:45;;;;;;;12.10;6.40;;;;;;;0.09;92.02;102979.46;107076;1248;70057;-68
2023/01/23 21:52:14;;;;;;;10.90;6.20;;;;;;;0.10;92.89;102981.19;107140;1248;72861;-67
2023/01/23 21:54:43;;;;;;;12.20;6.90;;;;;;;0.10;92.29;102981.70;107095;1246;62177;-69
2023/01/23 21:57:12;;;;;;;12.50;7.10;;;;;;;0.12;92.53;102981.88;106923;1254;58953;-69
2023/01/23 22:01:30;;;;;;;13.70;6.30;;;;;;;0.03;92.85;102977.54;106882;1252;70894;-69
2023/01/23 22:02:40;;;;;;;12.80;7.40;;;;;;;0.08;92.78;102975.34;107172;1244;62025;-68
2023/01/23 22:05:08;;;;;;;11.60;6.70;;;;;;;0.07;93.61;102970.55;107057;1248;69489;-68
2023/01/23 22:07:38;;;;;;;11.00;6.10;;;;;;;0.11;93.31;102970.57;107149;1245;73976;-68
2023/01/23 22:10:08;;;;;;;11.90;6.40;;;;;;;0.10;92.74;102970.57;107214;1245;61463;-65
2023/01/23 22:12:37;;;;;;;10.20;6.30;;;;;;;0.10;92.84;102971.77;107153;1244;61576;-67
2023/01/23 22:15:07;;;;;;;9.90;6.00;;;;;;;0.12;93.79;102969.71;107027;1248;72892;-66
2023/01/23 22:17:36;;;;;;;10.10;6.20;;;;;;;0.15;93.68;102974.89;107168;1244;69903;-65
2023/01/23 22:20:06;;;;;;;11.50;6.30;;;;;;;0.22;93.52;102978.87;107149;1252;68643;-65
2023/01/23 22:22:35;;;;;;;9.30;5.40;;;;;;;0.13;93.06;102975.04;107174;1252;72839;-65
2023/01/23 22:25:05;;;;;;;10.50;6.20;;;;;;;0.10;92.71;102974.00;107171;1246;59869;-65
2023/01/23 22:27:37;;;;;;;11.70;6.80;;;;;;;0.06;93.38;102972.59;107217;1244;60369;-65
2023/01/23 22:30:07;;;;;;;11.10;6.20;;;;;;;0.10;93.80;102970.05;107233;1244;72420;-67
2023/01/23 22:32:36;;;;;;;9.60;5.30;;;;;;;0.14;92.67;102965.61;107268;1244;70588;-65
2023/01/23 22:35:08;;;;;;;9.30;5.20;;;;;;;0.10;92.45;102964.39;107301;1246;68456;-65
2023/01/23 22:37:38;;;;;;;12.90;5.90;;;;;;;0.03;93.03;102963.15;107227;1245;73807;-66
2023/01/23 22:40:09;;;;;;;11.70;6.60;;;;;;;0.02;93.29;102963.65;107322;1256;62917;-71
2023/01/23 22:42:38;;;;;;;12.40;6.80;;;;;;;0.03;92.94;102964.52;107412;1248;60399;-67
2023/01/23 22:45:09;;;;;;;11.70;6.40;;;;;;;0.01;93.36;102962.79;107459;1253;71427;-68
2023/01/23 22:47:38;;;;;;;9.60;6.10;;;;;;;-0.01;93.56;102962.95;107351;1244;70649;-66
2023/01/23 22:50:09;;;;;;;9.30;5.90;;;;;;;-0.01;93.79;102964.14;107332;1247;69030;-67
2023/01/23 22:52:40;;;;;;;9.90;5.90;;;;;;;0.01;93.88;102959.70;107104;1256;74058;-67
2023/01/23 22:55:10;;;;;;;11.00;6.50;;;;;;;0.01;93.72;102958.68;107111;1245;60136;-66
2023/01/23 22:57:39;;;;;;;11.00;5.80;;;;;;;0.00;93.78;102958.67;107106;1244;62008;-67
2023/01/23 23:00:15;;;;;;;12.20;6.90;;;;;;;-0.04;94.26;102956.08;107029;1250;73221;-67
2023/01/23 23:02:44;;;;;;;12.40;6.10;;;;;;;-0.01;93.85;102960.20;107133;1248;70638;-67
2023/01/23 23:05:13;;;;;;;10.00;5.90;;;;;;;-0.03;93.88;102959.67;107135;1253;69209;-68
2023/01/23 23:07:42;;;;;;;11.00;5.70;;;;;;;-0.03;94.05;102956.42;107126;1253;71124;-67
2023/01/23 23:10:12;;;;;;;12.50;6.90;;;;;;;-0.02;94.04;102959.85;107188;1252;59827;-69
2023/01/23 23:12:40;;;;;;;13.60;6.80;;;;;;;-0.05;94.46;102961.88;107173;1244;60441;-66
2023/01/23 23:15:10;;;;;;;12.40;6.80;;;;;;;-0.02;94.14;102961.05;107220;1249;74730;-67
2023/01/23 23:17:39;;;;;;;10.90;6.00;;;;;;;-0.03;95.66;102961.20;107170;1249;69948;-66
2023/01/23 23:20:10;;;;;;;11.80;6.50;;;;;;;0.07;94.88;102954.95;107038;1248;68169;-65
2023/01/23 23:22:41;;;;;;;12.40;7.00;;;;;;;0.00;95.05;102962.27;107137;1244;73807;-67
2023/01/23 23:25:10;;;;;;;14.60;7.10;;;;;;;-0.07;95.36;102959.30;107049;1248;62841;-65
2023/01/23 23:27:39;;;;;;;11.10;6.30;;;;;;;0.04;95.50;102964.86;107011;1255;61850;-71
2023/01/23 23:30:10;;;;;;;11.50;6.80;;;;;;;0.05;94.49;102964.19;107127;1248;72078;-68
2023/01/23 23:32:39;;;;;;;12.30;6.60;;;;;;;0.03;95.40;102961.95;107147;1257;72217;-65
2023/01/23 23:35:09;;;;;;;16.10;6.90;;;;;;;-0.08;96.05;102958.95;107004;1248;70874;-68
2023/01/23 23:37:37;;;;;;;11.50;6.80;;;;;;;0.02;95.21;102955.95;107083;1252;73660;-67
2023/01/23 23:40:07;;;;;;;10.60;5.80;;;;;;;0.05;94.87;102952.70;107111;1246;61455;-67
2023/01/23 23:42:36;;;;;;;11.30;6.40;;;;;;;0.06;94.44;102953.06;107190;1248;59672;-65
2023/01/23 23:45:07;;;;;;;11.30;7.00;;;;;;;0.06;94.62;102955.11;107161;1245;71565;-65
2023/01/23 23:47:36;;;;;;;11.90;6.40;;;;;;;0.07;95.23;102954.42;107144;1248;70421;-64
2023/01/23 23:50:06;;;;;;;12.40;6.50;;;;;;;0.07;95.71;102952.39;107188;1245;68998;-65
2023/01/23 23:52:35;;;;;;;10.70;6.20;;;;;;;0.09;95.11;102951.19;107111;1248;71120;-67
2023/01/23 23:55:05;;;;;;;10.40;5.90;;;;;;;0.11;94.61;102949.83;107178;1256;59672;-69
2023/01/23 23:57:34;;;;;;;11.70;6.30;;;;;;;0.11;94.54;102950.86;107192;1248;58718;-67
